createdAt,value
2023-03-29T00:01:36.190Z,101078.00
2023-03-29T00:04:04.632Z,101074.00
2023-03-29T00:06:33.220Z,101076.00
2023-03-29T00:09:01.549Z,101073.00
2023-03-29T00:11:28.068Z,101062.00
2023-03-29T00:13:54.832Z,101065.00
2023-03-29T00:16:21.635Z,101054.00
2023-03-29T00:18:48.288Z,101052.00
2023-03-29T00:21:14.869Z,101048.00
2023-03-29T00:23:41.397Z,101061.00
2023-03-29T00:26:08.410Z,101056.00
2023-03-29T00:28:35.408Z,101068.00
2023-03-29T00:31:13.503Z,101067.00
2023-03-29T00:33:41.330Z,101056.00
2023-03-29T00:36:10.245Z,101059.00
2023-03-29T00:38:37.324Z,101037.00
2023-03-29T00:41:04.607Z,101057.00
2023-03-29T00:43:31.457Z,101060.00
2023-03-29T00:45:57.993Z,101049.00
2023-03-29T00:48:27.159Z,101038.00
2023-03-29T00:50:54.430Z,101045.00
2023-03-29T00:53:29.348Z,101036.00
2023-03-29T00:56:04.432Z,101043.00
2023-03-29T00:58:39.111Z,101030.00
2023-03-29T01:01:12.544Z,101030.00
2023-03-29T01:04:17.852Z,101025.00
2023-03-29T01:06:55.553Z,101021.00
2023-03-29T01:09:24.055Z,101016.00
2023-03-29T01:11:56.891Z,101012.00
2023-03-29T01:14:34.380Z,101010.00
2023-03-29T01:17:02.000Z,101007.00
2023-03-29T01:19:33.914Z,101007.00
2023-03-29T01:22:13.678Z,100997.00
2023-03-29T01:24:52.307Z,100995.00
2023-03-29T01:27:40.231Z,100985.00
2023-03-29T01:30:14.044Z,100984.00
2023-03-29T01:32:47.856Z,100975.00
2023-03-29T01:35:25.846Z,100980.00
2023-03-29T01:37:59.593Z,100972.00
2023-03-29T01:40:31.049Z,100970.00
2023-03-29T01:43:03.346Z,100964.00
2023-03-29T01:45:45.458Z,100959.00
2023-03-29T01:48:18.940Z,100952.00
2023-03-29T01:50:50.916Z,100945.00
2023-03-29T01:53:24.207Z,100949.00
2023-03-29T01:55:54.660Z,100937.00
2023-03-29T01:58:28.695Z,100938.00
2023-03-29T02:00:55.600Z,100933.00
2023-03-29T02:03:28.091Z,100924.00
2023-03-29T02:05:55.577Z,100916.00
2023-03-29T02:08:23.102Z,100909.00
2023-03-29T02:10:51.701Z,100908.00
2023-03-29T02:13:19.189Z,100905.00
2023-03-29T02:15:48.493Z,100903.00
2023-03-29T02:18:16.358Z,100911.00
2023-03-29T02:20:47.305Z,100903.00
2023-03-29T02:23:18.553Z,100912.00
2023-03-29T02:25:45.865Z,100905.00
2023-03-29T02:28:13.017Z,100911.00
2023-03-29T02:31:04.579Z,100895.00
2023-03-29T02:33:58.767Z,100901.00
2023-03-29T02:36:29.340Z,100897.00
2023-03-29T02:38:57.098Z,100892.00
2023-03-29T02:41:25.444Z,100885.00
2023-03-29T02:43:53.175Z,100884.00
2023-03-29T02:46:20.871Z,100885.00
2023-03-29T02:48:49.766Z,100880.00
2023-03-29T02:51:21.068Z,100881.00
2023-03-29T02:53:59.210Z,100878.00
2023-03-29T02:56:25.792Z,100869.00
2023-03-29T02:58:52.301Z,100869.00
2023-03-29T03:01:20.560Z,100855.00
2023-03-29T03:03:50.640Z,100866.00
2023-03-29T03:06:18.240Z,100851.00
2023-03-29T03:08:44.896Z,100863.00
2023-03-29T03:11:11.518Z,100850.00
2023-03-29T03:13:38.000Z,100855.00
2023-03-29T03:16:05.388Z,100854.00
2023-03-29T03:18:32.491Z,100855.00
2023-03-29T03:21:01.737Z,100861.00
2023-03-29T03:23:28.648Z,100853.00
2023-03-29T03:25:55.425Z,100838.00
2023-03-29T03:28:24.130Z,100845.00
2023-03-29T03:30:50.637Z,100829.00
2023-03-29T03:33:18.047Z,100837.00
2023-03-29T03:36:06.190Z,100815.00
2023-03-29T03:38:36.164Z,100831.00
2023-03-29T03:41:04.373Z,100834.00
2023-03-29T03:43:33.564Z,100831.00
2023-03-29T03:46:00.225Z,100827.00
2023-03-29T03:48:27.021Z,100814.00
2023-03-29T03:51:10.216Z,100830.00
2023-03-29T03:53:37.070Z,100817.00
2023-03-29T03:56:29.853Z,100830.00
2023-03-29T03:59:15.653Z,100825.00
2023-03-29T04:02:06.679Z,100819.00
2023-03-29T04:04:35.840Z,100809.00
2023-03-29T04:07:14.157Z,100806.00
2023-03-29T04:10:01.002Z,100814.00
2023-03-29T04:12:44.083Z,100806.00
2023-03-29T04:15:12.077Z,100808.00
2023-03-29T04:17:44.361Z,100798.00
2023-03-29T04:20:27.061Z,100803.00
2023-03-29T04:22:54.148Z,100814.00
2023-03-29T04:25:22.294Z,100804.00
2023-03-29T04:28:07.727Z,100804.00
2023-03-29T04:30:49.234Z,100798.00
2023-03-29T04:33:51.519Z,100807.00
2023-03-29T04:36:19.162Z,100802.00
2023-03-29T04:38:47.950Z,100789.00
2023-03-29T04:41:15.984Z,100797.00
2023-03-29T04:44:02.790Z,100796.00
2023-03-29T04:46:32.345Z,100795.00
2023-03-29T04:48:59.095Z,100796.00
2023-03-29T04:51:34.430Z,100798.00
2023-03-29T04:54:01.637Z,100792.00
2023-03-29T04:56:28.563Z,100797.00
2023-03-29T04:59:14.098Z,100789.00
2023-03-29T05:01:41.548Z,100786.00
2023-03-29T05:04:09.273Z,100793.00
2023-03-29T05:06:44.962Z,100789.00
2023-03-29T05:09:11.519Z,100786.00
2023-03-29T05:11:45.288Z,100787.00
2023-03-29T05:14:13.212Z,100790.00
2023-03-29T05:16:40.860Z,100791.00
2023-03-29T05:19:11.215Z,100782.00
2023-03-29T05:21:45.747Z,100773.00
2023-03-29T05:24:17.061Z,100770.00
2023-03-29T05:26:53.476Z,100771.00
2023-03-29T05:29:20.435Z,100755.00
2023-03-29T05:31:53.086Z,100742.00
2023-03-29T05:34:20.040Z,100754.00
2023-03-29T05:36:51.759Z,100762.00
2023-03-29T05:39:19.366Z,100752.00
2023-03-29T05:41:46.456Z,100753.00
2023-03-29T05:44:39.859Z,100756.00
2023-03-29T05:47:14.462Z,100750.00
2023-03-29T05:49:40.991Z,100749.00
2023-03-29T05:52:16.971Z,100757.00
2023-03-29T05:54:43.584Z,100755.00
2023-03-29T05:57:11.959Z,100744.00
2023-03-29T05:59:39.796Z,100745.00
2023-03-29T06:02:06.855Z,100752.00
2023-03-29T06:04:38.311Z,100750.00
2023-03-29T06:07:32.057Z,100739.00
2023-03-29T06:10:27.805Z,100749.00
2023-03-29T06:13:06.978Z,100752.00
2023-03-29T06:15:35.344Z,100757.00
2023-03-29T06:18:05.864Z,100758.00
2023-03-29T06:20:33.934Z,100742.00
2023-03-29T06:23:07.941Z,100751.00
2023-03-29T06:25:35.283Z,100733.00
2023-03-29T06:28:02.221Z,100751.00
2023-03-29T06:30:28.904Z,100751.00
2023-03-29T06:32:57.690Z,100756.00
2023-03-29T06:35:45.902Z,100754.00
2023-03-29T06:38:16.558Z,100753.00
2023-03-29T06:41:04.570Z,100751.00
2023-03-29T06:43:48.338Z,100741.00
2023-03-29T06:46:16.872Z,100739.00
2023-03-29T06:48:55.974Z,100743.00
2023-03-29T06:51:29.021Z,100725.00
2023-03-29T06:53:55.584Z,100738.00
2023-03-29T06:56:22.610Z,100742.00
2023-03-29T06:59:01.074Z,100738.00
2023-03-29T07:01:52.474Z,100729.00
2023-03-29T07:04:41.687Z,100738.00
2023-03-29T07:07:53.452Z,100728.00
2023-03-29T07:10:32.365Z,100725.00
2023-03-29T07:13:17.653Z,100736.00
2023-03-29T07:15:45.036Z,100725.00
2023-03-29T07:18:14.483Z,100725.00
2023-03-29T07:20:42.367Z,100736.00
2023-03-29T07:23:09.812Z,100725.00
2023-03-29T07:25:37.134Z,100728.00
2023-03-29T07:28:04.606Z,100733.00
2023-03-29T07:30:32.510Z,100736.00
2023-03-29T07:33:15.854Z,100728.00
2023-03-29T07:35:48.426Z,100735.00
2023-03-29T07:38:15.550Z,100725.00
2023-03-29T07:40:47.372Z,100720.00
2023-03-29T07:43:32.360Z,100728.00
2023-03-29T07:46:04.598Z,100717.00
2023-03-29T07:48:33.549Z,100693.00
2023-03-29T07:51:05.163Z,100724.00
2023-03-29T07:53:54.522Z,100717.00
2023-03-29T07:56:30.744Z,100695.00
2023-03-29T07:59:12.213Z,100724.00
2023-03-29T08:01:44.611Z,100705.00
2023-03-29T08:04:26.385Z,100710.00
2023-03-29T08:07:12.493Z,100721.00
2023-03-29T08:09:57.602Z,100715.00
2023-03-29T08:12:38.029Z,100706.00
2023-03-29T08:15:06.067Z,100709.00
2023-03-29T08:17:34.973Z,100700.00
2023-03-29T08:20:05.802Z,100717.00
2023-03-29T08:22:33.338Z,100709.00
2023-03-29T08:25:09.960Z,100726.00
2023-03-29T08:27:42.365Z,100718.00
2023-03-29T08:30:11.308Z,100692.00
2023-03-29T08:32:39.378Z,100702.00
2023-03-29T08:35:09.613Z,100703.00
2023-03-29T08:37:42.277Z,100710.00
2023-03-29T08:40:17.714Z,100705.00
2023-03-29T08:43:17.969Z,100704.00
2023-03-29T08:46:23.339Z,100694.00
2023-03-29T08:48:56.401Z,100681.00
2023-03-29T08:51:27.923Z,100697.00
2023-03-29T08:54:05.474Z,100692.00
2023-03-29T08:57:04.552Z,100695.00
2023-03-29T08:59:37.401Z,100683.00
2023-03-29T09:02:15.958Z,100683.00
2023-03-29T09:04:43.685Z,100672.00
2023-03-29T09:07:24.662Z,100663.00
2023-03-29T09:09:54.458Z,100677.00
2023-03-29T09:12:59.050Z,100672.00
2023-03-29T09:15:44.922Z,100668.00
2023-03-29T09:18:30.399Z,100667.00
2023-03-29T09:21:11.387Z,100656.00
2023-03-29T09:24:01.140Z,100660.00
2023-03-29T09:27:23.306Z,100655.00
2023-03-29T09:30:07.629Z,100663.00
2023-03-29T09:32:54.465Z,100657.00
2023-03-29T09:35:34.557Z,100653.00
2023-03-29T09:38:07.418Z,100655.00
2023-03-29T09:41:04.703Z,100652.00
2023-03-29T09:43:38.308Z,100656.00
2023-03-29T09:46:19.929Z,100652.00
2023-03-29T09:48:47.829Z,100651.00
2023-03-29T09:51:14.596Z,100655.00
2023-03-29T09:53:41.271Z,100643.00
2023-03-29T09:56:30.127Z,100653.00
2023-03-29T09:59:07.398Z,100646.00
2023-03-29T10:01:41.523Z,100643.00
2023-03-29T10:04:11.209Z,100643.00
2023-03-29T10:06:49.427Z,100628.00
2023-03-29T10:09:20.671Z,100630.00
2023-03-29T10:11:55.215Z,100639.00
2023-03-29T10:14:37.159Z,100635.00
2023-03-29T10:17:19.804Z,100625.00
2023-03-29T10:19:51.347Z,100619.00
2023-03-29T10:22:23.015Z,100596.00
2023-03-29T10:24:52.007Z,100605.00
2023-03-29T10:27:28.562Z,100608.00
2023-03-29T10:29:56.878Z,100612.00
2023-03-29T10:32:36.638Z,100611.00
2023-03-29T10:35:18.382Z,100603.00
2023-03-29T10:37:49.827Z,100581.00
2023-03-29T10:40:26.631Z,100596.00
2023-03-29T10:42:57.771Z,100602.00
2023-03-29T10:45:34.796Z,100603.00
2023-03-29T10:48:04.178Z,100596.00
2023-03-29T10:50:35.879Z,100596.00
2023-03-29T10:53:03.236Z,100579.00
2023-03-29T10:55:41.023Z,100587.00
2023-03-29T10:58:16.648Z,100588.00
2023-03-29T11:00:55.139Z,100573.00
2023-03-29T11:03:28.059Z,100582.00
2023-03-29T11:06:11.903Z,100588.00
2023-03-29T11:08:48.934Z,100571.00
2023-03-29T11:11:49.237Z,100572.00
2023-03-29T11:14:27.971Z,100571.00
2023-03-29T11:17:16.243Z,100577.00
2023-03-29T11:20:18.285Z,100562.00
2023-03-29T11:22:47.711Z,100562.00
2023-03-29T11:25:14.985Z,100574.00
2023-03-29T11:28:02.457Z,100577.00
2023-03-29T11:30:44.303Z,100571.00
2023-03-29T11:33:13.803Z,100566.00
2023-03-29T11:35:42.811Z,100560.00
2023-03-29T11:38:35.742Z,100560.00
2023-03-29T11:41:08.262Z,100553.00
2023-03-29T11:43:54.967Z,100560.00
2023-03-29T11:46:32.181Z,100545.00
2023-03-29T11:49:25.204Z,100548.00
2023-03-29T11:52:01.246Z,100538.00
2023-03-29T11:54:30.330Z,100527.00
2023-03-29T11:57:00.606Z,100541.00
2023-03-29T11:59:40.913Z,100536.00
2023-03-29T12:02:35.980Z,100538.00
2023-03-29T12:05:10.981Z,100534.00
2023-03-29T12:07:42.279Z,100533.00
2023-03-29T12:10:19.127Z,100537.00
2023-03-29T12:13:02.298Z,100535.00
2023-03-29T12:15:36.832Z,100536.00
2023-03-29T12:18:25.543Z,100534.00
2023-03-29T12:20:57.530Z,100530.00
2023-03-29T12:23:25.534Z,100533.00
2023-03-29T12:26:12.134Z,100521.00
2023-03-29T12:28:53.445Z,100515.00
2023-03-29T12:31:48.154Z,100517.00
2023-03-29T12:34:17.940Z,100524.00
2023-03-29T12:37:20.938Z,100525.00
2023-03-29T12:40:14.963Z,100513.00
2023-03-29T12:43:03.846Z,100516.00
2023-03-29T12:45:54.897Z,100522.00
2023-03-29T12:48:27.272Z,100503.00
2023-03-29T12:51:01.273Z,100516.00
2023-03-29T12:53:54.810Z,100495.00
2023-03-29T12:56:23.727Z,100494.00
2023-03-29T12:58:59.343Z,100505.00
2023-03-29T13:01:41.348Z,100505.00
2023-03-29T13:04:22.342Z,100484.00
2023-03-29T13:06:48.865Z,100487.00
2023-03-29T13:09:29.726Z,100482.00
2023-03-29T13:12:04.095Z,100472.00
2023-03-29T13:14:34.722Z,100475.00
2023-03-29T13:17:17.696Z,100462.00
2023-03-29T13:20:04.210Z,100462.00
2023-03-29T13:22:46.800Z,100476.00
2023-03-29T13:25:51.175Z,100474.00
2023-03-29T13:28:23.154Z,100471.00
2023-03-29T13:31:03.428Z,100470.00
2023-03-29T13:33:43.417Z,100469.00
2023-03-29T13:36:29.342Z,100477.00
2023-03-29T13:39:01.736Z,100482.00
2023-03-29T13:41:40.690Z,100476.00
2023-03-29T13:44:48.880Z,100476.00
2023-03-29T13:47:44.748Z,100474.00
2023-03-29T13:50:28.972Z,100465.00
2023-03-29T13:53:19.712Z,100467.00
2023-03-29T13:55:48.648Z,100479.00
2023-03-29T13:58:38.240Z,100477.00
2023-03-29T14:01:16.233Z,100466.00
2023-03-29T14:03:48.439Z,100469.00
2023-03-29T14:06:18.827Z,100474.00
2023-03-29T14:08:45.810Z,100469.00
2023-03-29T14:11:23.014Z,100471.00
2023-03-29T14:13:54.492Z,100470.00
2023-03-29T14:16:21.555Z,100467.00
2023-03-29T14:18:51.251Z,100463.00
2023-03-29T14:21:18.452Z,100473.00
2023-03-29T14:23:46.958Z,100475.00
2023-03-29T14:26:19.907Z,100459.00
2023-03-29T14:28:51.876Z,100471.00
2023-03-29T14:31:40.004Z,100470.00
2023-03-29T14:34:14.992Z,100460.00
2023-03-29T14:36:44.796Z,100464.00
2023-03-29T14:39:20.712Z,100461.00
2023-03-29T14:41:50.670Z,100455.00
2023-03-29T14:44:18.703Z,100454.00
2023-03-29T14:46:46.740Z,100467.00
2023-03-29T14:49:18.068Z,100448.00
2023-03-29T14:51:45.926Z,100456.00
2023-03-29T14:54:29.806Z,100455.00
2023-03-29T14:56:56.385Z,100445.00
2023-03-29T14:59:35.174Z,100451.00
2023-03-29T15:02:01.811Z,100447.00
2023-03-29T15:04:35.641Z,100448.00
2023-03-29T15:07:04.428Z,100437.00
2023-03-29T15:09:34.084Z,100450.00
2023-03-29T15:12:02.135Z,100447.00
2023-03-29T15:14:36.838Z,100438.00
2023-03-29T15:17:06.991Z,100447.00
2023-03-29T15:19:34.254Z,100427.00
2023-03-29T15:22:05.951Z,100441.00
2023-03-29T15:24:33.761Z,100421.00
2023-03-29T15:27:01.561Z,100433.00
2023-03-29T15:29:43.279Z,100416.00
2023-03-29T15:32:20.516Z,100431.00
2023-03-29T15:34:58.026Z,100406.00
2023-03-29T15:37:24.905Z,100401.00
2023-03-29T15:39:54.015Z,100421.00
2023-03-29T15:42:21.003Z,100404.00
2023-03-29T15:44:47.617Z,100417.00
2023-03-29T15:47:14.458Z,100411.00
2023-03-29T15:49:41.156Z,100398.00
2023-03-29T15:52:07.822Z,100400.00
2023-03-29T15:54:37.001Z,100394.00
2023-03-29T15:57:08.124Z,100391.00
2023-03-29T15:59:36.314Z,100380.00
2023-03-29T16:02:03.144Z,100381.00
2023-03-29T16:04:29.891Z,100366.00
2023-03-29T16:06:57.595Z,100367.00
2023-03-29T16:09:25.581Z,100362.00
2023-03-29T16:11:52.624Z,100346.00
2023-03-29T16:14:27.823Z,100359.00
2023-03-29T16:16:55.525Z,100371.00
2023-03-29T16:19:22.726Z,100359.00
2023-03-29T16:21:49.819Z,100360.00
2023-03-29T16:24:28.004Z,100372.00
2023-03-29T16:26:57.159Z,100365.00
2023-03-29T16:29:24.711Z,100363.00
2023-03-29T16:31:52.737Z,100370.00
2023-03-29T16:34:22.735Z,100373.00
2023-03-29T16:36:49.866Z,100373.00
2023-03-29T16:39:18.096Z,100375.00
2023-03-29T16:41:46.863Z,100364.00
2023-03-29T16:44:16.460Z,100386.00
2023-03-29T16:46:42.934Z,100367.00
2023-03-29T16:49:13.812Z,100363.00
2023-03-29T16:51:40.425Z,100376.00
2023-03-29T16:54:07.320Z,100361.00
2023-03-29T16:56:36.377Z,100359.00
2023-03-29T16:59:03.721Z,100363.00
2023-03-29T17:01:30.336Z,100366.00
2023-03-29T17:03:57.286Z,100357.00
2023-03-29T17:06:24.059Z,100360.00
2023-03-29T17:08:50.657Z,100350.00
2023-03-29T17:11:17.528Z,100357.00
2023-03-29T17:13:44.538Z,100348.00
2023-03-29T17:16:11.344Z,100351.00
2023-03-29T17:18:37.981Z,100344.00
2023-03-29T17:21:04.919Z,100366.00
2023-03-29T17:23:31.554Z,100347.00
2023-03-29T17:25:58.081Z,100350.00
2023-03-29T17:28:24.715Z,100353.00
2023-03-29T17:30:51.448Z,100354.00
2023-03-29T17:33:22.441Z,100349.00
2023-03-29T17:35:49.577Z,100356.00
2023-03-29T17:38:16.223Z,100346.00
2023-03-29T17:40:42.785Z,100355.00
2023-03-29T17:43:09.294Z,100359.00
2023-03-29T17:45:35.965Z,100358.00
2023-03-29T17:48:05.520Z,100342.00
2023-03-29T17:50:33.005Z,100352.00
2023-03-29T17:52:59.598Z,100334.00
2023-03-29T17:55:26.444Z,100344.00
2023-03-29T17:57:52.990Z,100342.00
2023-03-29T18:00:20.006Z,100344.00
2023-03-29T18:02:46.711Z,100333.00
2023-03-29T18:05:13.486Z,100353.00
2023-03-29T18:07:40.339Z,100340.00
2023-03-29T18:10:08.100Z,100349.00
2023-03-29T18:12:34.974Z,100350.00
2023-03-29T18:15:02.140Z,100352.00
2023-03-29T18:17:28.867Z,100346.00
2023-03-29T18:19:55.643Z,100351.00
2023-03-29T18:22:23.888Z,100352.00
2023-03-29T18:24:50.950Z,100350.00
2023-03-29T18:27:18.318Z,100337.00
2023-03-29T18:29:44.930Z,100353.00
2023-03-29T18:32:11.739Z,100354.00
2023-03-29T18:34:39.254Z,100353.00
2023-03-29T18:37:06.136Z,100338.00
2023-03-29T18:39:34.648Z,100343.00
2023-03-29T18:42:01.614Z,100343.00
2023-03-29T18:44:28.644Z,100349.00
2023-03-29T18:46:55.217Z,100340.00
2023-03-29T18:49:21.760Z,100350.00
2023-03-29T18:51:49.912Z,100351.00
2023-03-29T18:54:17.442Z,100353.00
2023-03-29T18:56:44.023Z,100343.00
2023-03-29T18:59:10.764Z,100353.00
2023-03-29T19:01:37.645Z,100354.00
2023-03-29T19:04:04.556Z,100346.00
2023-03-29T19:06:31.823Z,100343.00
2023-03-29T19:09:01.835Z,100350.00
2023-03-29T19:11:29.607Z,100348.00
2023-03-29T19:13:56.281Z,100344.00
2023-03-29T19:16:22.983Z,100345.00
2023-03-29T19:18:49.612Z,100345.00
2023-03-29T19:21:16.377Z,100343.00
2023-03-29T19:23:42.930Z,100342.00
2023-03-29T19:26:10.644Z,100343.00
2023-03-29T19:28:37.415Z,100343.00
2023-03-29T19:31:04.454Z,100340.00
2023-03-29T19:33:32.275Z,100341.00
2023-03-29T19:35:59.011Z,100334.00
2023-03-29T19:38:25.682Z,100338.00
2023-03-29T19:40:52.391Z,100334.00
2023-03-29T19:43:20.629Z,100324.00
2023-03-29T19:45:48.814Z,100330.00
2023-03-29T19:48:22.284Z,100334.00
2023-03-29T19:50:49.450Z,100324.00
2023-03-29T19:53:16.104Z,100304.00
2023-03-29T19:55:44.145Z,100312.00
2023-03-29T19:58:10.769Z,100310.00
2023-03-29T20:00:39.082Z,100308.00
2023-03-29T20:03:09.779Z,100301.00
2023-03-29T20:05:38.774Z,100301.00
2023-03-29T20:08:06.356Z,100300.00
2023-03-29T20:10:33.701Z,100304.00
2023-03-29T20:13:00.448Z,100306.00
2023-03-29T20:15:27.156Z,100305.00
2023-03-29T20:17:57.030Z,100292.00
2023-03-29T20:20:25.347Z,100296.00
2023-03-29T20:22:53.946Z,100288.00
2023-03-29T20:25:21.235Z,100287.00
2023-03-29T20:27:49.365Z,100282.00
2023-03-29T20:30:16.378Z,100293.00
2023-03-29T20:32:43.122Z,100297.00
2023-03-29T20:35:11.096Z,100279.00
2023-03-29T20:37:37.714Z,100303.00
2023-03-29T20:40:05.401Z,100290.00
2023-03-29T20:42:34.401Z,100268.00
2023-03-29T20:45:01.365Z,100279.00
2023-03-29T20:47:29.360Z,100267.00
2023-03-29T20:49:56.800Z,100269.00
2023-03-29T20:52:24.201Z,100266.00
2023-03-29T20:54:50.932Z,100268.00
2023-03-29T20:57:20.775Z,100270.00
2023-03-29T20:59:49.092Z,100259.00
2023-03-29T21:02:20.735Z,100254.00
2023-03-29T21:04:53.858Z,100246.00
2023-03-29T21:07:21.476Z,100247.00
2023-03-29T21:09:49.979Z,100249.00
2023-03-29T21:12:16.798Z,100247.00
2023-03-29T21:14:43.598Z,100237.00
2023-03-29T21:17:10.246Z,100242.00
2023-03-29T21:19:38.960Z,100246.00
2023-03-29T21:22:05.954Z,100242.00
2023-03-29T21:24:33.246Z,100243.00
2023-03-29T21:27:00.486Z,100228.00
2023-03-29T21:29:27.201Z,100233.00
2023-03-29T21:31:56.003Z,100237.00
2023-03-29T21:34:22.606Z,100229.00
2023-03-29T21:36:49.603Z,100225.00
2023-03-29T21:39:16.228Z,100211.00
2023-03-29T21:41:42.863Z,100225.00
2023-03-29T21:44:09.402Z,100222.00
2023-03-29T21:46:36.330Z,100215.00
2023-03-29T21:49:02.975Z,100205.00
2023-03-29T21:51:29.556Z,100208.00
2023-03-29T21:53:56.105Z,100208.00
2023-03-29T21:56:23.038Z,100210.00
2023-03-29T21:58:49.701Z,100209.00
2023-03-29T22:01:16.305Z,100211.00
2023-03-29T22:03:43.114Z,100190.00
2023-03-29T22:06:12.967Z,100195.00
2023-03-29T22:08:39.946Z,100198.00
2023-03-29T22:11:13.728Z,100196.00
2023-03-29T22:13:40.857Z,100200.00
2023-03-29T22:16:08.402Z,100193.00
2023-03-29T22:18:42.960Z,100185.00
2023-03-29T22:21:14.412Z,100186.00
2023-03-29T22:24:01.265Z,100192.00
2023-03-29T22:26:30.377Z,100186.00
2023-03-29T22:28:58.813Z,100188.00
2023-03-29T22:31:26.731Z,100188.00
2023-03-29T22:33:53.811Z,100185.00
2023-03-29T22:36:30.998Z,100176.00
2023-03-29T22:38:57.903Z,100179.00
2023-03-29T22:41:26.046Z,100182.00
2023-03-29T22:43:53.941Z,100172.00
2023-03-29T22:46:21.072Z,100178.00
2023-03-29T22:48:48.833Z,100182.00
2023-03-29T22:51:16.162Z,100178.00
2023-03-29T22:53:42.824Z,100167.00
2023-03-29T22:56:09.712Z,100176.00
2023-03-29T22:58:37.115Z,100166.00
2023-03-29T23:01:04.877Z,100167.00
2023-03-29T23:03:32.239Z,100156.00
2023-03-29T23:06:02.420Z,100166.00
2023-03-29T23:08:30.790Z,100154.00
2023-03-29T23:10:57.515Z,100147.00
2023-03-29T23:13:25.739Z,100151.00
2023-03-29T23:15:54.904Z,100148.00
2023-03-29T23:18:23.486Z,100144.00
2023-03-29T23:20:52.092Z,100135.00
2023-03-29T23:23:19.622Z,100126.00
2023-03-29T23:25:47.977Z,100117.00
2023-03-29T23:28:16.729Z,100130.00
2023-03-29T23:30:43.541Z,100119.00
2023-03-29T23:33:10.446Z,100131.00
2023-03-29T23:35:37.737Z,100125.00
2023-03-29T23:38:05.666Z,100122.00
2023-03-29T23:40:34.455Z,100122.00
2023-03-29T23:43:01.027Z,100117.00
2023-03-29T23:45:28.057Z,100127.00
2023-03-29T23:47:55.023Z,100118.00
2023-03-29T23:50:22.546Z,100111.00
2023-03-29T23:52:51.567Z,100118.00
2023-03-29T23:55:18.876Z,100117.00
2023-03-29T23:57:45.625Z,100114.00
